sensor_id;sensor_type;location;lat;lon;timestamp;P1;durP1;ratioP1;P2;durP2;ratioP2
76123;SDS011;65173;48.066;20.976;2022-12-05T00:00:32;93.03;;;49.80;;
76123;SDS011;65173;48.066;20.976;2022-12-05T00:03:35;90.43;;;48.40;;
76123;SDS011;65173;48.066;20.976;2022-12-05T00:06:39;86.50;;;46.92;;
76123;SDS011;65173;48.066;20.976;2022-12-05T00:09:42;91.63;;;47.13;;
76123;SDS011;65173;48.066;20.976;2022-12-05T00:12:45;89.63;;;49.17;;
76123;SDS011;65173;48.066;20.976;2022-12-05T00:15:48;88.13;;;48.33;;
76123;SDS011;65173;48.066;20.976;2022-12-05T00:18:51;88.43;;;48.42;;
76123;SDS011;65173;48.066;20.976;2022-12-05T00:21:54;96.78;;;48.85;;
76123;SDS011;65173;48.066;20.976;2022-12-05T00:24:58;89.57;;;45.85;;
76123;SDS011;65173;48.066;20.976;2022-12-05T00:28:01;79.43;;;44.15;;
76123;SDS011;65173;48.066;20.976;2022-12-05T00:31:04;76.85;;;44.78;;
76123;SDS011;65173;48.066;20.976;2022-12-05T00:34:09;74.93;;;42.70;;
76123;SDS011;65173;48.066;20.976;2022-12-05T00:37:11;73.55;;;39.80;;
76123;SDS011;65173;48.066;20.976;2022-12-05T00:40:14;78.97;;;43.10;;
76123;SDS011;65173;48.066;20.976;2022-12-05T00:43:17;63.07;;;35.27;;
76123;SDS011;65173;48.066;20.976;2022-12-05T00:46:21;51.17;;;27.23;;
76123;SDS011;65173;48.066;20.976;2022-12-05T00:49:25;45.00;;;23.42;;
76123;SDS011;65173;48.066;20.976;2022-12-05T00:52:28;39.92;;;23.50;;
76123;SDS011;65173;48.066;20.976;2022-12-05T00:55:31;43.53;;;25.13;;
76123;SDS011;65173;48.066;20.976;2022-12-05T00:58:37;43.78;;;24.30;;
76123;SDS011;65173;48.066;20.976;2022-12-05T01:01:40;45.95;;;24.05;;
76123;SDS011;65173;48.066;20.976;2022-12-05T01:04:44;43.67;;;23.77;;
76123;SDS011;65173;48.066;20.976;2022-12-05T01:07:47;38.15;;;21.58;;
76123;SDS011;65173;48.066;20.976;2022-12-05T01:10:53;39.55;;;21.40;;
76123;SDS011;65173;48.066;20.976;2022-12-05T01:13:57;36.33;;;21.63;;
76123;SDS011;65173;48.066;20.976;2022-12-05T01:17:00;39.38;;;22.50;;
76123;SDS011;65173;48.066;20.976;2022-12-05T01:20:03;36.33;;;20.42;;
76123;SDS011;65173;48.066;20.976;2022-12-05T01:23:06;38.15;;;21.63;;
76123;SDS011;65173;48.066;20.976;2022-12-05T01:26:10;36.08;;;19.83;;
76123;SDS011;65173;48.066;20.976;2022-12-05T01:29:16;38.33;;;21.27;;
76123;SDS011;65173;48.066;20.976;2022-12-05T01:32:20;37.97;;;20.27;;
76123;SDS011;65173;48.066;20.976;2022-12-05T01:35:23;37.30;;;21.53;;
76123;SDS011;65173;48.066;20.976;2022-12-05T01:38:26;38.88;;;21.52;;
76123;SDS011;65173;48.066;20.976;2022-12-05T01:41:31;42.03;;;22.85;;
76123;SDS011;65173;48.066;20.976;2022-12-05T01:47:38;38.08;;;21.40;;
76123;SDS011;65173;48.066;20.976;2022-12-05T01:50:41;42.58;;;22.98;;
76123;SDS011;65173;48.066;20.976;2022-12-05T01:53:45;40.60;;;23.08;;
76123;SDS011;65173;48.066;20.976;2022-12-05T01:56:52;41.13;;;22.58;;
76123;SDS011;65173;48.066;20.976;2022-12-05T02:00:03;43.55;;;21.95;;
76123;SDS011;65173;48.066;20.976;2022-12-05T02:03:17;41.65;;;22.25;;
76123;SDS011;65173;48.066;20.976;2022-12-05T02:06:21;45.37;;;22.77;;
76123;SDS011;65173;48.066;20.976;2022-12-05T02:09:27;43.13;;;22.20;;
76123;SDS011;65173;48.066;20.976;2022-12-05T02:12:29;40.78;;;22.45;;
76123;SDS011;65173;48.066;20.976;2022-12-05T02:15:42;40.77;;;23.03;;
76123;SDS011;65173;48.066;20.976;2022-12-05T02:25:52;36.85;;;20.40;;
76123;SDS011;65173;48.066;20.976;2022-12-05T02:29:37;44.95;;;22.40;;
76123;SDS011;65173;48.066;20.976;2022-12-05T02:42:50;45.85;;;23.80;;
76123;SDS011;65173;48.066;20.976;2022-12-05T02:46:08;41.00;;;22.48;;
76123;SDS011;65173;48.066;20.976;2022-12-05T02:49:24;46.10;;;24.60;;
76123;SDS011;65173;48.066;20.976;2022-12-05T02:52:32;44.35;;;23.20;;
76123;SDS011;65173;48.066;20.976;2022-12-05T02:55:37;46.25;;;25.73;;
76123;SDS011;65173;48.066;20.976;2022-12-05T02:58:44;45.47;;;24.25;;
76123;SDS011;65173;48.066;20.976;2022-12-05T03:01:52;40.45;;;22.35;;
76123;SDS011;65173;48.066;20.976;2022-12-05T03:04:57;46.60;;;22.70;;
76123;SDS011;65173;48.066;20.976;2022-12-05T03:08:15;44.50;;;21.25;;
76123;SDS011;65173;48.066;20.976;2022-12-05T03:11:22;45.67;;;25.00;;
76123;SDS011;65173;48.066;20.976;2022-12-05T03:14:28;40.83;;;22.30;;
76123;SDS011;65173;48.066;20.976;2022-12-05T03:17:35;46.22;;;23.88;;
76123;SDS011;65173;48.066;20.976;2022-12-05T03:20:57;46.43;;;24.20;;
76123;SDS011;65173;48.066;20.976;2022-12-05T03:24:05;44.08;;;23.00;;
76123;SDS011;65173;48.066;20.976;2022-12-05T03:30:33;45.20;;;25.67;;
76123;SDS011;65173;48.066;20.976;2022-12-05T03:33:40;49.15;;;25.23;;
76123;SDS011;65173;48.066;20.976;2022-12-05T03:36:48;46.42;;;24.20;;
76123;SDS011;65173;48.066;20.976;2022-12-05T03:40:05;43.35;;;23.20;;
76123;SDS011;65173;48.066;20.976;2022-12-05T03:43:28;47.33;;;25.07;;
76123;SDS011;65173;48.066;20.976;2022-12-05T03:50:21;47.33;;;25.20;;
76123;SDS011;65173;48.066;20.976;2022-12-05T03:53:33;42.73;;;23.33;;
76123;SDS011;65173;48.066;20.976;2022-12-05T03:56:43;45.67;;;24.05;;
76123;SDS011;65173;48.066;20.976;2022-12-05T04:03:10;41.88;;;23.20;;
76123;SDS011;65173;48.066;20.976;2022-12-05T04:06:33;38.97;;;22.50;;
76123;SDS011;65173;48.066;20.976;2022-12-05T04:09:40;35.97;;;19.20;;
76123;SDS011;65173;48.066;20.976;2022-12-05T04:12:50;37.38;;;21.30;;
76123;SDS011;65173;48.066;20.976;2022-12-05T04:16:01;48.40;;;22.83;;
76123;SDS011;65173;48.066;20.976;2022-12-05T04:23:17;39.53;;;21.15;;
76123;SDS011;65173;48.066;20.976;2022-12-05T04:26:22;42.67;;;21.87;;
76123;SDS011;65173;48.066;20.976;2022-12-05T04:29:31;41.38;;;21.45;;
76123;SDS011;65173;48.066;20.976;2022-12-05T04:32:43;41.38;;;22.65;;
76123;SDS011;65173;48.066;20.976;2022-12-05T04:36:14;33.47;;;17.58;;
76123;SDS011;65173;48.066;20.976;2022-12-05T04:39:26;79.28;;;35.70;;
76123;SDS011;65173;48.066;20.976;2022-12-05T04:42:34;61.05;;;28.67;;
76123;SDS011;65173;48.066;20.976;2022-12-05T04:45:39;45.13;;;22.27;;
76123;SDS011;65173;48.066;20.976;2022-12-05T04:48:44;55.27;;;29.00;;
76123;SDS011;65173;48.066;20.976;2022-12-05T04:51:51;58.25;;;30.92;;
76123;SDS011;65173;48.066;20.976;2022-12-05T04:55:08;61.20;;;31.67;;
76123;SDS011;65173;48.066;20.976;2022-12-05T04:58:20;58.13;;;32.07;;
76123;SDS011;65173;48.066;20.976;2022-12-05T05:01:29;53.08;;;27.38;;
76123;SDS011;65173;48.066;20.976;2022-12-05T05:04:49;48.78;;;25.55;;
76123;SDS011;65173;48.066;20.976;2022-12-05T05:07:53;72.38;;;37.97;;
76123;SDS011;65173;48.066;20.976;2022-12-05T05:11:05;67.85;;;37.97;;
76123;SDS011;65173;48.066;20.976;2022-12-05T05:14:09;61.78;;;32.72;;
76123;SDS011;65173;48.066;20.976;2022-12-05T05:17:12;55.75;;;30.63;;
76123;SDS011;65173;48.066;20.976;2022-12-05T05:20:14;45.70;;;26.00;;
76123;SDS011;65173;48.066;20.976;2022-12-05T05:23:28;52.72;;;27.65;;
76123;SDS011;65173;48.066;20.976;2022-12-05T05:26:32;49.58;;;24.95;;
76123;SDS011;65173;48.066;20.976;2022-12-05T05:29:37;54.23;;;28.13;;
76123;SDS011;65173;48.066;20.976;2022-12-05T05:32:40;46.20;;;24.90;;
76123;SDS011;65173;48.066;20.976;2022-12-05T05:35:42;48.60;;;25.15;;
76123;SDS011;65173;48.066;20.976;2022-12-05T05:38:47;53.30;;;27.50;;
76123;SDS011;65173;48.066;20.976;2022-12-05T05:41:51;49.30;;;28.98;;
76123;SDS011;65173;48.066;20.976;2022-12-05T05:44:53;48.83;;;25.10;;
76123;SDS011;65173;48.066;20.976;2022-12-05T05:47:56;50.10;;;24.48;;
76123;SDS011;65173;48.066;20.976;2022-12-05T05:50:59;52.33;;;26.77;;
76123;SDS011;65173;48.066;20.976;2022-12-05T05:54:02;56.33;;;29.02;;
76123;SDS011;65173;48.066;20.976;2022-12-05T05:57:05;56.97;;;29.45;;
76123;SDS011;65173;48.066;20.976;2022-12-05T06:00:09;58.70;;;30.53;;
76123;SDS011;65173;48.066;20.976;2022-12-05T06:03:31;55.55;;;29.30;;
76123;SDS011;65173;48.066;20.976;2022-12-05T06:06:34;52.75;;;27.65;;
76123;SDS011;65173;48.066;20.976;2022-12-05T06:09:37;48.50;;;27.40;;
76123;SDS011;65173;48.066;20.976;2022-12-05T06:13:01;51.63;;;26.95;;
76123;SDS011;65173;48.066;20.976;2022-12-05T06:16:04;57.45;;;31.00;;
76123;SDS011;65173;48.066;20.976;2022-12-05T06:19:08;55.05;;;28.67;;
76123;SDS011;65173;48.066;20.976;2022-12-05T06:22:10;50.07;;;25.37;;
76123;SDS011;65173;48.066;20.976;2022-12-05T06:25:13;52.97;;;29.88;;
76123;SDS011;65173;48.066;20.976;2022-12-05T06:28:16;48.83;;;27.98;;
76123;SDS011;65173;48.066;20.976;2022-12-05T06:31:20;49.87;;;26.83;;
76123;SDS011;65173;48.066;20.976;2022-12-05T06:34:25;52.65;;;28.17;;
76123;SDS011;65173;48.066;20.976;2022-12-05T06:37:27;54.38;;;28.15;;
76123;SDS011;65173;48.066;20.976;2022-12-05T06:40:32;56.45;;;29.15;;
76123;SDS011;65173;48.066;20.976;2022-12-05T06:43:36;61.47;;;29.98;;
76123;SDS011;65173;48.066;20.976;2022-12-05T06:46:38;56.70;;;29.90;;
76123;SDS011;65173;48.066;20.976;2022-12-05T06:49:41;47.30;;;24.55;;
76123;SDS011;65173;48.066;20.976;2022-12-05T06:52:44;60.80;;;30.40;;
76123;SDS011;65173;48.066;20.976;2022-12-05T06:56:00;63.58;;;33.47;;
76123;SDS011;65173;48.066;20.976;2022-12-05T06:59:04;105.70;;;47.30;;
76123;SDS011;65173;48.066;20.976;2022-12-05T07:02:07;156.23;;;69.53;;
76123;SDS011;65173;48.066;20.976;2022-12-05T07:05:12;123.45;;;60.72;;
76123;SDS011;65173;48.066;20.976;2022-12-05T07:08:14;115.50;;;57.70;;
76123;SDS011;65173;48.066;20.976;2022-12-05T07:11:17;87.95;;;44.72;;
76123;SDS011;65173;48.066;20.976;2022-12-05T07:14:20;69.03;;;35.30;;
76123;SDS011;65173;48.066;20.976;2022-12-05T07:17:43;66.82;;;33.65;;
76123;SDS011;65173;48.066;20.976;2022-12-05T07:20:54;91.57;;;44.58;;
76123;SDS011;65173;48.066;20.976;2022-12-05T07:24:14;117.63;;;61.37;;
76123;SDS011;65173;48.066;20.976;2022-12-05T07:27:17;132.30;;;61.60;;
76123;SDS011;65173;48.066;20.976;2022-12-05T07:30:28;138.55;;;65.88;;
76123;SDS011;65173;48.066;20.976;2022-12-05T07:33:31;145.40;;;65.47;;
76123;SDS011;65173;48.066;20.976;2022-12-05T07:36:33;120.80;;;52.28;;
76123;SDS011;65173;48.066;20.976;2022-12-05T07:39:36;114.65;;;52.53;;
76123;SDS011;65173;48.066;20.976;2022-12-05T07:42:39;85.80;;;43.88;;
76123;SDS011;65173;48.066;20.976;2022-12-05T07:45:42;81.10;;;38.78;;
76123;SDS011;65173;48.066;20.976;2022-12-05T07:48:46;76.57;;;36.00;;
76123;SDS011;65173;48.066;20.976;2022-12-05T07:51:49;72.90;;;35.38;;
76123;SDS011;65173;48.066;20.976;2022-12-05T07:54:52;77.10;;;34.80;;
76123;SDS011;65173;48.066;20.976;2022-12-05T07:57:55;65.88;;;30.95;;
76123;SDS011;65173;48.066;20.976;2022-12-05T08:01:08;77.07;;;34.25;;
76123;SDS011;65173;48.066;20.976;2022-12-05T08:04:15;76.87;;;37.50;;
76123;SDS011;65173;48.066;20.976;2022-12-05T08:07:18;78.03;;;36.85;;
76123;SDS011;65173;48.066;20.976;2022-12-05T08:10:21;66.90;;;33.35;;
76123;SDS011;65173;48.066;20.976;2022-12-05T08:13:23;76.13;;;38.45;;
76123;SDS011;65173;48.066;20.976;2022-12-05T08:16:28;82.80;;;43.17;;
76123;SDS011;65173;48.066;20.976;2022-12-05T08:19:32;87.72;;;44.65;;
76123;SDS011;65173;48.066;20.976;2022-12-05T08:22:35;109.68;;;48.78;;
76123;SDS011;65173;48.066;20.976;2022-12-05T08:25:37;56.77;;;28.40;;
76123;SDS011;65173;48.066;20.976;2022-12-05T08:28:40;70.30;;;35.30;;
76123;SDS011;65173;48.066;20.976;2022-12-05T08:31:45;70.70;;;35.78;;
76123;SDS011;65173;48.066;20.976;2022-12-05T08:34:49;46.37;;;22.97;;
76123;SDS011;65173;48.066;20.976;2022-12-05T08:37:52;59.70;;;27.40;;
76123;SDS011;65173;48.066;20.976;2022-12-05T08:40:55;58.17;;;27.23;;
76123;SDS011;65173;48.066;20.976;2022-12-05T08:43:59;57.22;;;26.75;;
76123;SDS011;65173;48.066;20.976;2022-12-05T08:47:04;59.15;;;27.38;;
76123;SDS011;65173;48.066;20.976;2022-12-05T08:50:07;50.42;;;25.70;;
76123;SDS011;65173;48.066;20.976;2022-12-05T08:53:09;52.75;;;25.33;;
76123;SDS011;65173;48.066;20.976;2022-12-05T08:56:12;56.10;;;25.33;;
76123;SDS011;65173;48.066;20.976;2022-12-05T08:59:15;51.00;;;22.05;;
76123;SDS011;65173;48.066;20.976;2022-12-05T09:02:18;66.90;;;30.50;;
76123;SDS011;65173;48.066;20.976;2022-12-05T09:05:21;54.67;;;27.47;;
76123;SDS011;65173;48.066;20.976;2022-12-05T09:08:30;49.60;;;21.77;;
76123;SDS011;65173;48.066;20.976;2022-12-05T09:11:34;50.28;;;22.77;;
76123;SDS011;65173;48.066;20.976;2022-12-05T09:14:39;53.65;;;24.98;;
76123;SDS011;65173;48.066;20.976;2022-12-05T09:17:42;68.68;;;31.75;;
76123;SDS011;65173;48.066;20.976;2022-12-05T09:20:45;68.25;;;31.45;;
76123;SDS011;65173;48.066;20.976;2022-12-05T09:23:48;73.65;;;36.60;;
76123;SDS011;65173;48.066;20.976;2022-12-05T09:26:51;68.60;;;32.77;;
76123;SDS011;65173;48.066;20.976;2022-12-05T09:29:54;55.28;;;26.05;;
76123;SDS011;65173;48.066;20.976;2022-12-05T09:32:57;65.93;;;32.65;;
76123;SDS011;65173;48.066;20.976;2022-12-05T09:36:06;53.53;;;27.33;;
76123;SDS011;65173;48.066;20.976;2022-12-05T09:39:12;59.50;;;31.05;;
76123;SDS011;65173;48.066;20.976;2022-12-05T09:45:28;62.20;;;32.25;;
76123;SDS011;65173;48.066;20.976;2022-12-05T09:48:38;59.65;;;31.73;;
76123;SDS011;65173;48.066;20.976;2022-12-05T09:51:42;70.13;;;34.85;;
76123;SDS011;65173;48.066;20.976;2022-12-05T09:54:53;56.13;;;28.27;;
76123;SDS011;65173;48.066;20.976;2022-12-05T09:57:57;65.00;;;30.80;;
76123;SDS011;65173;48.066;20.976;2022-12-05T10:11:20;81.68;;;40.95;;
76123;SDS011;65173;48.066;20.976;2022-12-05T10:17:58;54.97;;;29.50;;
76123;SDS011;65173;48.066;20.976;2022-12-05T10:21:03;43.03;;;21.45;;
76123;SDS011;65173;48.066;20.976;2022-12-05T10:24:14;48.60;;;24.98;;
76123;SDS011;65173;48.066;20.976;2022-12-05T10:27:27;55.65;;;27.60;;
76123;SDS011;65173;48.066;20.976;2022-12-05T10:30:42;48.17;;;25.73;;
76123;SDS011;65173;48.066;20.976;2022-12-05T10:33:49;53.47;;;27.10;;
76123;SDS011;65173;48.066;20.976;2022-12-05T10:36:59;59.03;;;30.20;;
76123;SDS011;65173;48.066;20.976;2022-12-05T10:40:15;62.63;;;32.37;;
76123;SDS011;65173;48.066;20.976;2022-12-05T10:43:28;55.22;;;28.50;;
76123;SDS011;65173;48.066;20.976;2022-12-05T10:46:33;55.83;;;29.02;;
76123;SDS011;65173;48.066;20.976;2022-12-05T10:49:35;54.95;;;28.42;;
76123;SDS011;65173;48.066;20.976;2022-12-05T10:52:39;55.95;;;30.95;;
76123;SDS011;65173;48.066;20.976;2022-12-05T10:55:43;59.78;;;29.52;;
76123;SDS011;65173;48.066;20.976;2022-12-05T10:59:10;61.88;;;29.23;;
76123;SDS011;65173;48.066;20.976;2022-12-05T11:02:23;59.53;;;30.33;;
76123;SDS011;65173;48.066;20.976;2022-12-05T11:05:32;65.07;;;30.95;;
76123;SDS011;65173;48.066;20.976;2022-12-05T11:08:36;60.35;;;31.10;;
76123;SDS011;65173;48.066;20.976;2022-12-05T11:15:08;73.93;;;35.63;;
76123;SDS011;65173;48.066;20.976;2022-12-05T11:18:30;65.63;;;30.98;;
76123;SDS011;65173;48.066;20.976;2022-12-05T11:21:41;54.65;;;27.77;;
76123;SDS011;65173;48.066;20.976;2022-12-05T11:24:44;53.22;;;25.85;;
76123;SDS011;65173;48.066;20.976;2022-12-05T11:27:47;61.92;;;28.10;;
76123;SDS011;65173;48.066;20.976;2022-12-05T11:31:09;49.72;;;26.52;;
76123;SDS011;65173;48.066;20.976;2022-12-05T11:34:34;51.40;;;26.97;;
76123;SDS011;65173;48.066;20.976;2022-12-05T11:37:45;83.32;;;41.08;;
76123;SDS011;65173;48.066;20.976;2022-12-05T11:55:01;54.97;;;28.33;;
76123;SDS011;65173;48.066;20.976;2022-12-05T12:11:58;54.75;;;27.13;;
76123;SDS011;65173;48.066;20.976;2022-12-05T12:25:19;45.80;;;25.17;;
76123;SDS011;65173;48.066;20.976;2022-12-05T12:28:36;57.13;;;28.92;;
76123;SDS011;65173;48.066;20.976;2022-12-05T12:35:15;61.10;;;32.13;;
76123;SDS011;65173;48.066;20.976;2022-12-05T12:48:49;68.65;;;34.70;;
76123;SDS011;65173;48.066;20.976;2022-12-05T12:52:19;55.10;;;28.37;;
76123;SDS011;65173;48.066;20.976;2022-12-05T12:55:45;53.38;;;28.90;;
76123;SDS011;65173;48.066;20.976;2022-12-05T13:06:23;50.20;;;29.05;;
76123;SDS011;65173;48.066;20.976;2022-12-05T13:09:32;49.00;;;26.55;;
76123;SDS011;65173;48.066;20.976;2022-12-05T13:12:41;43.65;;;23.52;;
76123;SDS011;65173;48.066;20.976;2022-12-05T13:15:55;48.50;;;27.00;;
76123;SDS011;65173;48.066;20.976;2022-12-05T13:19:01;48.50;;;27.70;;
76123;SDS011;65173;48.066;20.976;2022-12-05T13:22:08;46.95;;;23.85;;
76123;SDS011;65173;48.066;20.976;2022-12-05T13:25:13;43.50;;;22.53;;
76123;SDS011;65173;48.066;20.976;2022-12-05T13:31:36;50.08;;;24.77;;
76123;SDS011;65173;48.066;20.976;2022-12-05T13:34:46;49.53;;;28.70;;
76123;SDS011;65173;48.066;20.976;2022-12-05T13:37:50;52.22;;;28.48;;
76123;SDS011;65173;48.066;20.976;2022-12-05T13:41:12;60.10;;;32.33;;
76123;SDS011;65173;48.066;20.976;2022-12-05T13:44:35;54.67;;;30.20;;
76123;SDS011;65173;48.066;20.976;2022-12-05T13:54:26;54.92;;;31.52;;
76123;SDS011;65173;48.066;20.976;2022-12-05T14:00:39;74.00;;;38.67;;
76123;SDS011;65173;48.066;20.976;2022-12-05T14:06:54;79.43;;;39.50;;
76123;SDS011;65173;48.066;20.976;2022-12-05T14:09:58;95.30;;;46.17;;
76123;SDS011;65173;48.066;20.976;2022-12-05T14:13:36;95.18;;;50.92;;
76123;SDS011;65173;48.066;20.976;2022-12-05T14:19:41;85.87;;;48.43;;
76123;SDS011;65173;48.066;20.976;2022-12-05T14:33:00;95.70;;;47.70;;
76123;SDS011;65173;48.066;20.976;2022-12-05T14:36:11;86.45;;;46.45;;
76123;SDS011;65173;48.066;20.976;2022-12-05T14:39:27;79.20;;;43.95;;
76123;SDS011;65173;48.066;20.976;2022-12-05T14:45:39;69.60;;;37.53;;
76123;SDS011;65173;48.066;20.976;2022-12-05T14:48:49;58.20;;;33.50;;
76123;SDS011;65173;48.066;20.976;2022-12-05T14:51:55;57.80;;;29.43;;
76123;SDS011;65173;48.066;20.976;2022-12-05T14:55:04;59.42;;;28.13;;
76123;SDS011;65173;48.066;20.976;2022-12-05T15:04:51;40.95;;;21.77;;
76123;SDS011;65173;48.066;20.976;2022-12-05T15:07:59;40.67;;;21.23;;
76123;SDS011;65173;48.066;20.976;2022-12-05T15:11:05;44.65;;;21.30;;
76123;SDS011;65173;48.066;20.976;2022-12-05T15:14:11;44.72;;;23.42;;
76123;SDS011;65173;48.066;20.976;2022-12-05T15:17:21;53.55;;;29.15;;
76123;SDS011;65173;48.066;20.976;2022-12-05T15:20:33;52.58;;;28.92;;
76123;SDS011;65173;48.066;20.976;2022-12-05T15:23:43;48.00;;;24.90;;
76123;SDS011;65173;48.066;20.976;2022-12-05T15:26:51;46.63;;;26.50;;
76123;SDS011;65173;48.066;20.976;2022-12-05T15:29:54;46.72;;;24.08;;
76123;SDS011;65173;48.066;20.976;2022-12-05T15:32:57;52.00;;;26.37;;
76123;SDS011;65173;48.066;20.976;2022-12-05T15:36:01;41.85;;;23.35;;
76123;SDS011;65173;48.066;20.976;2022-12-05T15:39:18;53.17;;;25.30;;
76123;SDS011;65173;48.066;20.976;2022-12-05T15:42:31;55.42;;;29.65;;
76123;SDS011;65173;48.066;20.976;2022-12-05T15:45:42;44.90;;;24.33;;
76123;SDS011;65173;48.066;20.976;2022-12-05T15:48:45;56.50;;;27.05;;
76123;SDS011;65173;48.066;20.976;2022-12-05T15:51:49;49.17;;;25.08;;
76123;SDS011;65173;48.066;20.976;2022-12-05T15:55:10;52.70;;;24.97;;
76123;SDS011;65173;48.066;20.976;2022-12-05T15:58:20;78.75;;;38.30;;
76123;SDS011;65173;48.066;20.976;2022-12-05T16:01:27;73.75;;;36.53;;
76123;SDS011;65173;48.066;20.976;2022-12-05T16:04:33;70.97;;;36.07;;
76123;SDS011;65173;48.066;20.976;2022-12-05T16:07:43;56.35;;;28.52;;
76123;SDS011;65173;48.066;20.976;2022-12-05T16:10:49;86.75;;;42.97;;
76123;SDS011;65173;48.066;20.976;2022-12-05T16:13:55;87.55;;;39.85;;
76123;SDS011;65173;48.066;20.976;2022-12-05T16:17:02;64.03;;;31.85;;
76123;SDS011;65173;48.066;20.976;2022-12-05T16:23:25;65.10;;;33.15;;
76123;SDS011;65173;48.066;20.976;2022-12-05T16:26:31;58.47;;;30.90;;
76123;SDS011;65173;48.066;20.976;2022-12-05T16:29:39;59.75;;;29.65;;
76123;SDS011;65173;48.066;20.976;2022-12-05T16:32:42;55.53;;;29.92;;
76123;SDS011;65173;48.066;20.976;2022-12-05T16:35:46;61.90;;;31.23;;
76123;SDS011;65173;48.066;20.976;2022-12-05T16:39:02;64.25;;;29.20;;
76123;SDS011;65173;48.066;20.976;2022-12-05T16:42:17;66.90;;;34.05;;
76123;SDS011;65173;48.066;20.976;2022-12-05T16:45:36;71.40;;;34.40;;
76123;SDS011;65173;48.066;20.976;2022-12-05T16:48:45;61.88;;;32.38;;
76123;SDS011;65173;48.066;20.976;2022-12-05T16:55:16;61.80;;;31.42;;
76123;SDS011;65173;48.066;20.976;2022-12-05T16:58:20;80.83;;;40.57;;
76123;SDS011;65173;48.066;20.976;2022-12-05T17:01:25;74.30;;;37.47;;
76123;SDS011;65173;48.066;20.976;2022-12-05T17:04:28;106.55;;;47.08;;
76123;SDS011;65173;48.066;20.976;2022-12-05T17:07:33;91.07;;;40.07;;
76123;SDS011;65173;48.066;20.976;2022-12-05T17:10:36;72.32;;;35.47;;
76123;SDS011;65173;48.066;20.976;2022-12-05T17:13:39;66.30;;;32.00;;
76123;SDS011;65173;48.066;20.976;2022-12-05T17:16:42;87.32;;;39.83;;
76123;SDS011;65173;48.066;20.976;2022-12-05T17:19:45;124.43;;;51.42;;
76123;SDS011;65173;48.066;20.976;2022-12-05T17:22:48;85.95;;;37.30;;
76123;SDS011;65173;48.066;20.976;2022-12-05T17:25:52;72.97;;;34.75;;
76123;SDS011;65173;48.066;20.976;2022-12-05T17:28:56;66.50;;;34.10;;
76123;SDS011;65173;48.066;20.976;2022-12-05T17:31:59;61.50;;;32.40;;
76123;SDS011;65173;48.066;20.976;2022-12-05T17:35:04;69.50;;;34.13;;
76123;SDS011;65173;48.066;20.976;2022-12-05T17:38:15;70.77;;;35.33;;
76123;SDS011;65173;48.066;20.976;2022-12-05T17:41:19;56.97;;;29.58;;
76123;SDS011;65173;48.066;20.976;2022-12-05T17:44:24;78.47;;;37.22;;
76123;SDS011;65173;48.066;20.976;2022-12-05T17:47:27;72.00;;;35.08;;
76123;SDS011;65173;48.066;20.976;2022-12-05T17:50:31;68.47;;;36.22;;
76123;SDS011;65173;48.066;20.976;2022-12-05T17:53:34;101.63;;;51.17;;
76123;SDS011;65173;48.066;20.976;2022-12-05T17:56:36;91.05;;;45.88;;
76123;SDS011;65173;48.066;20.976;2022-12-05T17:59:39;96.10;;;46.57;;
76123;SDS011;65173;48.066;20.976;2022-12-05T18:02:43;64.03;;;33.53;;
76123;SDS011;65173;48.066;20.976;2022-12-05T18:05:46;71.43;;;34.88;;
76123;SDS011;65173;48.066;20.976;2022-12-05T18:08:49;76.43;;;35.83;;
76123;SDS011;65173;48.066;20.976;2022-12-05T18:11:52;64.70;;;34.35;;
76123;SDS011;65173;48.066;20.976;2022-12-05T18:14:57;55.80;;;29.02;;
76123;SDS011;65173;48.066;20.976;2022-12-05T18:18:00;58.67;;;30.70;;
76123;SDS011;65173;48.066;20.976;2022-12-05T18:21:08;59.75;;;31.70;;
76123;SDS011;65173;48.066;20.976;2022-12-05T18:24:12;68.03;;;35.95;;
76123;SDS011;65173;48.066;20.976;2022-12-05T18:27:16;57.90;;;31.27;;
76123;SDS011;65173;48.066;20.976;2022-12-05T18:30:22;58.30;;;28.80;;
76123;SDS011;65173;48.066;20.976;2022-12-05T18:33:26;50.53;;;26.17;;
76123;SDS011;65173;48.066;20.976;2022-12-05T18:36:29;54.53;;;26.52;;
76123;SDS011;65173;48.066;20.976;2022-12-05T18:39:32;54.37;;;26.73;;
76123;SDS011;65173;48.066;20.976;2022-12-05T18:42:35;52.50;;;25.85;;
76123;SDS011;65173;48.066;20.976;2022-12-05T18:45:38;52.60;;;25.67;;
76123;SDS011;65173;48.066;20.976;2022-12-05T18:48:41;54.28;;;29.00;;
76123;SDS011;65173;48.066;20.976;2022-12-05T18:51:49;53.42;;;27.90;;
76123;SDS011;65173;48.066;20.976;2022-12-05T18:54:52;57.50;;;31.00;;
76123;SDS011;65173;48.066;20.976;2022-12-05T18:58:15;80.55;;;39.08;;
76123;SDS011;65173;48.066;20.976;2022-12-05T19:01:18;146.17;;;58.20;;
76123;SDS011;65173;48.066;20.976;2022-12-05T19:04:23;95.43;;;42.13;;
76123;SDS011;65173;48.066;20.976;2022-12-05T19:07:26;153.68;;;61.40;;
76123;SDS011;65173;48.066;20.976;2022-12-05T19:10:36;107.43;;;47.23;;
76123;SDS011;65173;48.066;20.976;2022-12-05T19:13:39;107.50;;;48.70;;
76123;SDS011;65173;48.066;20.976;2022-12-05T19:16:42;147.50;;;61.92;;
76123;SDS011;65173;48.066;20.976;2022-12-05T19:19:45;139.45;;;56.90;;
76123;SDS011;65173;48.066;20.976;2022-12-05T19:22:49;135.65;;;57.65;;
76123;SDS011;65173;48.066;20.976;2022-12-05T19:25:58;108.97;;;46.47;;
76123;SDS011;65173;48.066;20.976;2022-12-05T19:29:02;133.02;;;57.65;;
76123;SDS011;65173;48.066;20.976;2022-12-05T19:32:06;121.37;;;53.40;;
76123;SDS011;65173;48.066;20.976;2022-12-05T19:35:09;105.80;;;54.05;;
76123;SDS011;65173;48.066;20.976;2022-12-05T19:38:11;66.18;;;35.60;;
76123;SDS011;65173;48.066;20.976;2022-12-05T19:41:19;63.33;;;32.47;;
76123;SDS011;65173;48.066;20.976;2022-12-05T19:44:25;59.35;;;30.67;;
76123;SDS011;65173;48.066;20.976;2022-12-05T19:47:27;52.35;;;27.60;;
76123;SDS011;65173;48.066;20.976;2022-12-05T19:50:33;55.30;;;27.50;;
76123;SDS011;65173;48.066;20.976;2022-12-05T19:53:36;54.08;;;27.45;;
76123;SDS011;65173;48.066;20.976;2022-12-05T19:56:42;55.17;;;27.95;;
76123;SDS011;65173;48.066;20.976;2022-12-05T19:59:46;50.42;;;26.55;;
76123;SDS011;65173;48.066;20.976;2022-12-05T20:02:49;53.60;;;27.20;;
76123;SDS011;65173;48.066;20.976;2022-12-05T20:05:56;57.33;;;27.75;;
76123;SDS011;65173;48.066;20.976;2022-12-05T20:08:59;54.40;;;28.88;;
76123;SDS011;65173;48.066;20.976;2022-12-05T20:12:03;56.33;;;27.70;;
76123;SDS011;65173;48.066;20.976;2022-12-05T20:15:06;54.08;;;27.30;;
76123;SDS011;65173;48.066;20.976;2022-12-05T20:18:09;53.72;;;27.67;;
76123;SDS011;65173;48.066;20.976;2022-12-05T20:21:17;51.90;;;26.60;;
76123;SDS011;65173;48.066;20.976;2022-12-05T20:24:25;53.13;;;26.13;;
76123;SDS011;65173;48.066;20.976;2022-12-05T20:27:28;50.65;;;27.50;;
76123;SDS011;65173;48.066;20.976;2022-12-05T20:30:36;50.92;;;26.30;;
76123;SDS011;65173;48.066;20.976;2022-12-05T20:33:41;52.60;;;26.90;;
76123;SDS011;65173;48.066;20.976;2022-12-05T20:36:45;56.20;;;27.58;;